Weather

Current Metar report

KALM 151835Z AUTO 33013G17KT 10SM CLR 14/M18 A3022 RMK AO2


Metar history is on Flightaware.

KALM AWOS Info
Phone Number: 575-439-4112
Freq: 127.825 MHz

KALM Weather Links

Soaring Forecasts Links